Holberg, Canada
Current Conditions -  °F | °C
As of 6:00 AM on Thursday 23 Oct 2014 (Local Time) from CYZT Reporting Station
Broken Clouds Broken Clouds  
Wind Chill: 45°   Ceiling: 5000
Heat Index: 45°   Visibility: 15mi
Dew Point: 45°   Wind: 0mph
Humidity: 100%   Direction: NA
Pressure: 29.61"   Gusts: NA
Location:  50.65°N, 128.02°W
Report Text: CYZT 231300Z 00000KT 15SM FEW008 BKN050 07/07 A2961 RMK SF1SC7 SF TR SLP028
Loading
Personal Weather Stations






























Interactive Weather Map
Tropical Storm Tracking
New forecast layout! Learn more

10-Day Weather Forecast

Advertisements
Track Severe Weather on mobile